Patricia Ann — WDE2845 — position and weather

sailwx.info

Track history (hours):
 
Tides and Currents Weather Stations Pressure Air Temp Water Temp Dewpoint Dewpoint Depression Visibility Wind Speed Wind Dir Waves Ship Positions

Patricia Ann

Owner: AmNav Maritime Services, Oakland, CA. More information available from US FCC via Universal Licensing System and Coast Guard Vessel Documentation Center.

Last reported at 2016-May-25 00:33 UTC. Time now 2016-May-25 01:29 UTC.
Position N 37°49' W 122°20'.

Length 24 m; draft 4.9 m.

Type: Tug. MMSI: 367330510.

Date/timePositionNaut miles runAvg speedWind from/ knotsBaromVisibWave heightAir tempDewpointWater temp
2016-May-25 00:33N 37°49' W 122°20'0 0.1
2016-May-24 23:33N 37°49' W 122°19'0 0.4
2016-May-24 22:33N 37°49' W 122°19'0 0.5
2016-May-24 21:33N 37°49' W 122°19'0 0.0
2016-May-24 20:33N 37°49' W 122°19'0 0.0
2016-May-24 19:33N 37°49' W 122°19'7 7.1
2016-May-24 18:33N 37°54' W 122°25'2 2.2
2016-May-24 17:33N 37°52' W 122°24'5 4.8
2016-May-24 16:33N 37°48' W 122°21'0 0.0
2016-May-24 15:33N 37°48' W 122°21'0 0.0
2016-May-24 14:33N 37°48' W 122°21'1 0.8
2016-May-24 13:33N 37°49' W 122°20'1 0.8
2016-May-24 12:33N 37°48' W 122°21'0 0.0
2016-May-24 11:33N 37°48' W 122°21'3 2.6
2016-May-24 10:33N 37°48' W 122°17'2 2.2
2016-May-24 09:33N 37°48' W 122°20'2 1.7
2016-May-24 08:33N 37°49' W 122°19'0 0.0
2016-May-24 07:33N 37°49' W 122°19'0 0.0
2016-May-24 06:33N 37°49' W 122°19'0 0.0
2016-May-24 05:33N 37°49' W 122°19'0 0.0
2016-May-24 04:33N 37°49' W 122°19'0 0.0
2016-May-24 03:33N 37°49' W 122°19'0 0.0
2016-May-24 02:33N 37°49' W 122°19'2 1.6
2016-May-24 01:33N 37°48' W 122°19'1 1.3
2016-May-24 00:33N 37°48' W 122°21'1 1.2
2016-May-23 23:33N 37°48' W 122°19'2 1.5
2016-May-23 22:32N 37°49' W 122°19'0 0.0
2016-May-23 21:33N 37°49' W 122°19'0 0.0
2016-May-23 20:33N 37°49' W 122°19'0 0.0
2016-May-23 19:33N 37°49' W 122°19'0 0.0
2016-May-23 18:33N 37°49' W 122°19'0 0.0
2016-May-23 17:33N 37°49' W 122°19'2 1.9
2016-May-23 16:33N 37°48' W 122°18'3 3.1
2016-May-23 15:33N 37°48' W 122°22'1 0.9
2016-May-23 14:33N 37°48' W 122°21'0 0.0
2016-May-23 13:33N 37°48' W 122°21'6 5.6
2016-May-23 12:33N 37°43' W 122°20'1212.2
2016-May-23 11:33N 37°33' W 122°12'2 1.5
2016-May-23 10:18N 37°31' W 122°13'5 7.2
2016-May-23 09:33N 37°35' W 122°16'1110.7
2016-May-23 08:33N 37°45' W 122°21'3 3.0
2016-May-23 07:33N 37°48' W 122°20'2 1.7
2016-May-23 06:33N 37°49' W 122°19'0 0.0
2016-May-23 05:33N 37°49' W 122°19'0 0.0
2016-May-23 04:33N 37°49' W 122°19'0 0.0
2016-May-23 03:33N 37°49' W 122°19'0 0.0
2016-May-23 02:34N 37°49' W 122°19'0 0.0
2016-May-23 01:33N 37°49' W 122°19'0 0.0
2016-May-23 00:33N 37°49' W 122°19'2 1.6
2016-May-22 23:33N 37°48' W 122°19'1 1.0
2016-May-22 22:33N 37°48' W 122°18'0 0.2
2016-May-22 21:31N 37°48' W 122°18'1 1.0
2016-May-22 20:33N 37°48' W 122°17'4 3.6
2016-May-22 19:33N 37°48' W 122°22'3 2.6
2016-May-22 18:33N 37°49' W 122°19'5 4.6
2016-May-22 17:33N 37°49' W 122°25'5 5.3
2016-May-22 16:33N 37°49' W 122°31'6 6.4
2016-May-22 15:33N 37°53' W 122°25'2 1.7
2016-May-22 14:33N 37°51' W 122°24'4 3.9
2016-May-22 13:33N 37°49' W 122°20'2 1.9
2016-May-22 12:33N 37°48' W 122°23'2 1.7
2016-May-22 11:33N 37°48' W 122°20'0 0.2
2016-May-22 10:33N 37°49' W 122°20'1 1.5
2016-May-22 09:33N 37°49' W 122°19'0 0.0
2016-May-22 08:33N 37°49' W 122°19'0 0.0
2016-May-22 07:33N 37°49' W 122°19'0 0.0
2016-May-22 06:33N 37°49' W 122°19'0 0.0
2016-May-22 05:33N 37°49' W 122°19'0 0.0
2016-May-22 04:33N 37°49' W 122°19'0 0.0
2016-May-22 03:33N 37°49' W 122°19'0 0.0
2016-May-22 02:33N 37°49' W 122°19'0 0.0
2016-May-22 01:33N 37°49' W 122°19'0 0.0
2016-May-22 00:33N 37°49' W 122°19'2 1.8
2016-May-21 23:34N 37°48' W 122°18'1 0.7
2016-May-21 22:33N 37°48' W 122°19'2 1.6
2016-May-21 21:33N 37°49' W 122°19'0 0.0
2016-May-21 20:33N 37°49' W 122°19'0 0.0
2016-May-21 19:33N 37°49' W 122°19'0 0.0
2016-May-21 18:33N 37°49' W 122°19'0 0.0
2016-May-21 17:33N 37°49' W 122°19'0 0.0
2016-May-21 16:33N 37°49' W 122°19'0 0.0
2016-May-21 15:33N 37°49' W 122°19'0 0.0
2016-May-21 14:33N 37°49' W 122°19'0 0.0
2016-May-21 13:34N 37°49' W 122°19'1 1.0
2016-May-21 12:33N 37°49' W 122°20'0 0.2
2016-May-21 11:33N 37°49' W 122°20'1 1.1
2016-May-21 10:33N 37°49' W 122°19'0 0.0
2016-May-21 09:33N 37°49' W 122°19'0 0.0
2016-May-21 08:33N 37°49' W 122°19'0 0.0
2016-May-21 07:33N 37°49' W 122°19'0 0.0
2016-May-21 06:33N 37°49' W 122°19'0 0.0
2016-May-21 05:33N 37°49' W 122°19'0 0.0
2016-May-21 04:33N 37°49' W 122°19'0 0.0
2016-May-21 03:33N 37°49' W 122°19'0 0.0
2016-May-21 02:33N 37°49' W 122°19'0 0.0
2016-May-21 01:33N 37°49' W 122°19'1 1.0
2016-May-21 00:33N 37°49' W 122°20'1 1.0
2016-May-20 23:33N 37°49' W 122°19'0 0.0
2016-May-20 22:33N 37°49' W 122°19'2 1.6
2016-May-20 21:34N 37°48' W 122°19'2 2.0
2016-May-20 20:32N 37°48' W 122°22'0 0.1
2016-May-20 19:33N 37°48' W 122°22'3 2.6
2016-May-20 18:33N 37°49' W 122°19'0 0.0
2016-May-20 17:33N 37°49' W 122°19'0 0.0
2016-May-20 16:33N 37°49' W 122°19'0 0.0
2016-May-20 15:33N 37°49' W 122°19'0 0.0
2016-May-20 14:33N 37°49' W 122°19'2 1.6
2016-May-20 13:33N 37°48' W 122°19'3 2.6
2016-May-20 12:34N 37°48' W 122°22'2 1.8
2016-May-20 11:33N 37°49' W 122°20'0 0.0
2016-May-20 10:33N 37°49' W 122°20'0 0.0
2016-May-20 09:33N 37°49' W 122°20'0 0.0
2016-May-20 08:33N 37°49' W 122°20'0 0.3
2016-May-20 07:33N 37°48' W 122°21'0 0.0
2016-May-20 06:33N 37°48' W 122°21'0 0.0
2016-May-20 05:33N 37°48' W 122°21'0 0.0
2016-May-20 04:34N 37°48' W 122°21'0 0.0
2016-May-20 03:34N 37°48' W 122°21'0 0.4
2016-May-20 02:33N 37°48' W 122°20'2 1.6
2016-May-20 01:33N 37°48' W 122°18'2 2.0
2016-May-20 00:33N 37°48' W 122°21'0 0.0
2016-May-19 23:33N 37°48' W 122°21'2 1.6
2016-May-19 22:33N 37°48' W 122°19'2 1.7
2016-May-19 21:33N 37°49' W 122°19'0 0.0
2016-May-19 20:33N 37°49' W 122°19'0 0.0
2016-May-19 19:33N 37°49' W 122°19'0 0.0
2016-May-19 18:33N 37°49' W 122°19'0 0.0
2016-May-19 17:33N 37°49' W 122°19'0 0.0
2016-May-19 16:32N 37°49' W 122°19'0 0.0
2016-May-19 15:33N 37°49' W 122°19'0 0.0
2016-May-19 14:33N 37°49' W 122°19'0 0.0
2016-May-19 13:33N 37°49' W 122°19'2 1.6
2016-May-19 12:33N 37°48' W 122°20'1 1.5
2016-May-19 11:33N 37°48' W 122°22'3 3.1
2016-May-19 10:33N 37°49' W 122°19'0 0.0
2016-May-19 09:33N 37°49' W 122°19'0 0.0
2016-May-19 08:33N 37°49' W 122°19'0 0.0
2016-May-19 07:33N 37°49' W 122°19'0 0.0
2016-May-19 06:33N 37°49' W 122°19'0 0.0
2016-May-19 05:33N 37°49' W 122°19'0 0.0
2016-May-19 04:33N 37°49' W 122°19'0 0.0
2016-May-19 03:33N 37°49' W 122°19'0 0.0
2016-May-19 02:33N 37°49' W 122°19'2 1.8
2016-May-19 01:33N 37°48' W 122°18'0 0.0
2016-May-19 00:33N 37°48' W 122°18'0 0.0
2016-May-18 23:33N 37°48' W 122°18'1 1.1
2016-May-18 22:33N 37°48' W 122°17'0 0.0
2016-May-18 21:33N 37°48' W 122°17'0 0.0
2016-May-18 20:33N 37°48' W 122°17'0 0.0
2016-May-18 19:33N 37°48' W 122°17'0 0.0
2016-May-18 18:33N 37°48' W 122°17'0 0.0
2016-May-18 17:33N 37°48' W 122°17'2 2.0
2016-May-18 16:33N 37°48' W 122°20'1 0.9
2016-May-18 15:33N 37°48' W 122°21'0 0.0
2016-May-18 14:33N 37°48' W 122°21'0 0.0
2016-May-18 13:33N 37°48' W 122°21'2 2.4
2016-May-18 12:33N 37°48' W 122°18'2 2.5
2016-May-18 11:33N 37°48' W 122°21'1 0.7
2016-May-18 10:33N 37°49' W 122°20'0 0.0
2016-May-18 09:33N 37°49' W 122°20'0 0.0
2016-May-18 08:33N 37°49' W 122°20'0 0.0
2016-May-18 07:33N 37°49' W 122°20'0 0.0
2016-May-18 06:33N 37°49' W 122°20'0 0.0
2016-May-18 05:33N 37°49' W 122°20'1 1.2
2016-May-18 04:33N 37°48' W 122°19'1 1.4
2016-May-18 03:33N 37°48' W 122°21'2 1.7
2016-May-18 02:33N 37°49' W 122°19'0 0.0
2016-May-18 01:33N 37°49' W 122°19'0 0.0
2016-May-18 00:33N 37°49' W 122°19'0 0.0
2016-May-17 23:33N 37°49' W 122°19'0 0.0
2016-May-17 22:33N 37°49' W 122°19'0 0.0
2016-May-17 21:33N 37°49' W 122°19'0 0.0
2016-May-17 20:33N 37°49' W 122°19'0 0.0
2016-May-17 19:33N 37°49' W 122°19'0 0.0
2016-May-17 18:33N 37°49' W 122°19'0 0.0
2016-May-17 17:33N 37°49' W 122°19'0 0.0
2016-May-17 16:33N 37°49' W 122°19'0 0.0
2016-May-17 15:33N 37°49' W 122°19'0 0.0
2016-May-17 14:33N 37°49' W 122°19'2 1.9
2016-May-17 13:33N 37°48' W 122°18'0 0.3
2016-May-17 12:33N 37°48' W 122°18'0 0.0
2016-May-17 11:33N 37°48' W 122°18'0 0.0
2016-May-17 10:33N 37°48' W 122°18'0 0.0
2016-May-17 09:33N 37°48' W 122°18'0 0.0
2016-May-17 08:33N 37°48' W 122°18'0 0.2
2016-May-17 07:33N 37°48' W 122°18'0 0.3
2016-May-17 06:33N 37°48' W 122°18'2 1.7
2016-May-17 05:33N 37°49' W 122°19'0 0.0
2016-May-17 04:33N 37°49' W 122°19'0 0.0
2016-May-17 03:33N 37°49' W 122°19'0 0.1
2016-May-17 02:33N 37°49' W 122°19'1 1.4
2016-May-17 01:33N 37°48' W 122°19'0 0.0
2016-May-17 00:33N 37°48' W 122°19'1 0.7
2016-May-16 23:33N 37°48' W 122°19'0 0.4
2016-May-16 22:33N 37°48' W 122°18'1 1.0
2016-May-16 21:33N 37°48' W 122°19'2 1.5
2016-May-16 20:30N 37°49' W 122°19'1 1.5
2016-May-16 19:33N 37°49' W 122°20'2 1.6
2016-May-16 18:33N 37°48' W 122°19'0 0.3
2016-May-16 17:33N 37°48' W 122°19'1 1.3
2016-May-16 16:33N 37°49' W 122°20'1 0.9
2016-May-16 15:33N 37°49' W 122°19'0 0.0
2016-May-16 14:32N 37°49' W 122°19'0 0.0
2016-May-16 13:30N 37°49' W 122°19'0 0.0
2016-May-16 12:31N 37°49' W 122°19'0 0.0
2016-May-16 11:30N 37°49' W 122°19'0 0.0
2016-May-16 10:33N 37°49' W 122°19'0 0.0
2016-May-16 09:32N 37°49' W 122°19'0 0.0
2016-May-16 08:32N 37°49' W 122°19'2 1.6
2016-May-16 07:33N 37°48' W 122°19'1 1.0
2016-May-16 06:33N 37°48' W 122°21'2 1.8
2016-May-16 05:29N 37°49' W 122°19'2 2.4
2016-May-16 04:29N 37°50' W 122°22'6 5.7
2016-May-16 03:25N 37°55' W 122°25'3 3.9
2016-May-16 02:32N 37°52' W 122°25'6 6.5
2016-May-16 01:33N 37°46' W 122°21'4 3.9
2016-May-16 00:33N 37°49' W 122°19'1 1.0
2016-May-15 23:33N 37°49' W 122°20'0 0.0
2016-May-15 22:33N 37°49' W 122°20'1 1.0
2016-May-15 21:33N 37°49' W 122°19'0 0.0
2016-May-15 20:33N 37°49' W 122°19'0 0.0
2016-May-15 19:31N 37°49' W 122°19'0 0.0
2016-May-15 18:33N 37°49' W 122°19'0 0.0
2016-May-15 17:33N 37°49' W 122°19'1 1.5
2016-May-15 16:33N 37°49' W 122°20'2 1.6
2016-May-15 15:33N 37°48' W 122°19'1 0.6
2016-May-15 14:32N 37°48' W 122°19'1 1.1
2016-May-15 13:33N 37°49' W 122°20'1 1.0
2016-May-15 12:33N 37°48' W 122°22'2 1.7
2016-May-15 11:33N 37°48' W 122°19'2 1.6
2016-May-15 10:33N 37°49' W 122°19'0 0.0
2016-May-15 09:33N 37°49' W 122°19'0 0.0
2016-May-15 08:32N 37°49' W 122°19'0 0.0
2016-May-15 07:33N 37°49' W 122°19'0 0.0
2016-May-15 06:33N 37°49' W 122°19'0 0.0
2016-May-15 05:29N 37°49' W 122°19'0 0.0
2016-May-15 04:27N 37°49' W 122°19'0 0.0
2016-May-15 03:33N 37°49' W 122°19'2 1.8
2016-May-15 02:33N 37°48' W 122°20'1 1.2
2016-May-15 01:32N 37°48' W 122°22'1 0.8
2016-May-15 00:33N 37°47' W 122°23'  
Track history (hours):
 
Tides and Currents Weather Stations Pressure Air Temp Water Temp Dewpoint Dewpoint Depression Visibility Wind Speed Wind Dir Waves Ship Positions

Patricia Ann

Owner: AmNav Maritime Services, Oakland, CA. More information available from US FCC via Universal Licensing System and Coast Guard Vessel Documentation Center.

Last reported at 2016-May-25 00:33 UTC. Time now 2016-May-25 01:29 UTC.
Position N 37°49' W 122°20'.

Length 24 m; draft 4.9 m.

Type: Tug. MMSI: 367330510.

Date/timePositionNaut miles runAvg speedWind from/ knotsBaromVisibWave heightAir tempDewpointWater temp
2016-May-25 00:33N 37°49' W 122°20'0 0.1
2016-May-24 23:33N 37°49' W 122°19'0 0.4
2016-May-24 22:33N 37°49' W 122°19'0 0.5
2016-May-24 21:33N 37°49' W 122°19'0 0.0
2016-May-24 20:33N 37°49' W 122°19'0 0.0
2016-May-24 19:33N 37°49' W 122°19'7 7.1
2016-May-24 18:33N 37°54' W 122°25'2 2.2
2016-May-24 17:33N 37°52' W 122°24'5 4.8
2016-May-24 16:33N 37°48' W 122°21'0 0.0
2016-May-24 15:33N 37°48' W 122°21'0 0.0
2016-May-24 14:33N 37°48' W 122°21'1 0.8
2016-May-24 13:33N 37°49' W 122°20'1 0.8
2016-May-24 12:33N 37°48' W 122°21'0 0.0
2016-May-24 11:33N 37°48' W 122°21'3 2.6
2016-May-24 10:33N 37°48' W 122°17'2 2.2
2016-May-24 09:33N 37°48' W 122°20'2 1.7
2016-May-24 08:33N 37°49' W 122°19'0 0.0
2016-May-24 07:33N 37°49' W 122°19'0 0.0
2016-May-24 06:33N 37°49' W 122°19'0 0.0
2016-May-24 05:33N 37°49' W 122°19'0 0.0
2016-May-24 04:33N 37°49' W 122°19'0 0.0
2016-May-24 03:33N 37°49' W 122°19'0 0.0
2016-May-24 02:33N 37°49' W 122°19'2 1.6
2016-May-24 01:33N 37°48' W 122°19'1 1.3
2016-May-24 00:33N 37°48' W 122°21'1 1.2
2016-May-23 23:33N 37°48' W 122°19'2 1.5
2016-May-23 22:32N 37°49' W 122°19'0 0.0
2016-May-23 21:33N 37°49' W 122°19'0 0.0
2016-May-23 20:33N 37°49' W 122°19'0 0.0
2016-May-23 19:33N 37°49' W 122°19'0 0.0
2016-May-23 18:33N 37°49' W 122°19'0 0.0
2016-May-23 17:33N 37°49' W 122°19'2 1.9
2016-May-23 16:33N 37°48' W 122°18'3 3.1
2016-May-23 15:33N 37°48' W 122°22'1 0.9
2016-May-23 14:33N 37°48' W 122°21'0 0.0
2016-May-23 13:33N 37°48' W 122°21'6 5.6
2016-May-23 12:33N 37°43' W 122°20'1212.2
2016-May-23 11:33N 37°33' W 122°12'2 1.5
2016-May-23 10:18N 37°31' W 122°13'5 7.2
2016-May-23 09:33N 37°35' W 122°16'1110.7
2016-May-23 08:33N 37°45' W 122°21'3 3.0
2016-May-23 07:33N 37°48' W 122°20'2 1.7
2016-May-23 06:33N 37°49' W 122°19'0 0.0
2016-May-23 05:33N 37°49' W 122°19'0 0.0
2016-May-23 04:33N 37°49' W 122°19'0 0.0
2016-May-23 03:33N 37°49' W 122°19'0 0.0
2016-May-23 02:34N 37°49' W 122°19'0 0.0
2016-May-23 01:33N 37°49' W 122°19'0 0.0
2016-May-23 00:33N 37°49' W 122°19'2 1.6
2016-May-22 23:33N 37°48' W 122°19'1 1.0
2016-May-22 22:33N 37°48' W 122°18'0 0.2
2016-May-22 21:31N 37°48' W 122°18'1 1.0
2016-May-22 20:33N 37°48' W 122°17'4 3.6
2016-May-22 19:33N 37°48' W 122°22'3 2.6
2016-May-22 18:33N 37°49' W 122°19'5 4.6
2016-May-22 17:33N 37°49' W 122°25'5 5.3
2016-May-22 16:33N 37°49' W 122°31'6 6.4
2016-May-22 15:33N 37°53' W 122°25'2 1.7
2016-May-22 14:33N 37°51' W 122°24'4 3.9
2016-May-22 13:33N 37°49' W 122°20'2 1.9
2016-May-22 12:33N 37°48' W 122°23'2 1.7
2016-May-22 11:33N 37°48' W 122°20'0 0.2
2016-May-22 10:33N 37°49' W 122°20'1 1.5
2016-May-22 09:33N 37°49' W 122°19'0 0.0
2016-May-22 08:33N 37°49' W 122°19'0 0.0
2016-May-22 07:33N 37°49' W 122°19'0 0.0
2016-May-22 06:33N 37°49' W 122°19'0 0.0
2016-May-22 05:33N 37°49' W 122°19'0 0.0
2016-May-22 04:33N 37°49' W 122°19'0 0.0
2016-May-22 03:33N 37°49' W 122°19'0 0.0
2016-May-22 02:33N 37°49' W 122°19'0 0.0
2016-May-22 01:33N 37°49' W 122°19'0 0.0
2016-May-22 00:33N 37°49' W 122°19'2 1.8
2016-May-21 23:34N 37°48' W 122°18'1 0.7
2016-May-21 22:33N 37°48' W 122°19'2 1.6
2016-May-21 21:33N 37°49' W 122°19'0 0.0
2016-May-21 20:33N 37°49' W 122°19'0 0.0
2016-May-21 19:33N 37°49' W 122°19'0 0.0
2016-May-21 18:33N 37°49' W 122°19'0 0.0
2016-May-21 17:33N 37°49' W 122°19'0 0.0
2016-May-21 16:33N 37°49' W 122°19'0 0.0
2016-May-21 15:33N 37°49' W 122°19'0 0.0
2016-May-21 14:33N 37°49' W 122°19'0 0.0
2016-May-21 13:34N 37°49' W 122°19'1 1.0
2016-May-21 12:33N 37°49' W 122°20'0 0.2
2016-May-21 11:33N 37°49' W 122°20'1 1.1
2016-May-21 10:33N 37°49' W 122°19'0 0.0
2016-May-21 09:33N 37°49' W 122°19'0 0.0
2016-May-21 08:33N 37°49' W 122°19'0 0.0
2016-May-21 07:33N 37°49' W 122°19'0 0.0
2016-May-21 06:33N 37°49' W 122°19'0 0.0
2016-May-21 05:33N 37°49' W 122°19'0 0.0
2016-May-21 04:33N 37°49' W 122°19'0 0.0
2016-May-21 03:33N 37°49' W 122°19'0 0.0
2016-May-21 02:33N 37°49' W 122°19'0 0.0
2016-May-21 01:33N 37°49' W 122°19'1 1.0
2016-May-21 00:33N 37°49' W 122°20'1 1.0
2016-May-20 23:33N 37°49' W 122°19'0 0.0
2016-May-20 22:33N 37°49' W 122°19'2 1.6
2016-May-20 21:34N 37°48' W 122°19'2 2.0
2016-May-20 20:32N 37°48' W 122°22'0 0.1
2016-May-20 19:33N 37°48' W 122°22'3 2.6
2016-May-20 18:33N 37°49' W 122°19'0 0.0
2016-May-20 17:33N 37°49' W 122°19'0 0.0
2016-May-20 16:33N 37°49' W 122°19'0 0.0
2016-May-20 15:33N 37°49' W 122°19'0 0.0
2016-May-20 14:33N 37°49' W 122°19'2 1.6
2016-May-20 13:33N 37°48' W 122°19'3 2.6
2016-May-20 12:34N 37°48' W 122°22'2 1.8
2016-May-20 11:33N 37°49' W 122°20'0 0.0
2016-May-20 10:33N 37°49' W 122°20'0 0.0
2016-May-20 09:33N 37°49' W 122°20'0 0.0
2016-May-20 08:33N 37°49' W 122°20'0 0.3
2016-May-20 07:33N 37°48' W 122°21'0 0.0
2016-May-20 06:33N 37°48' W 122°21'0 0.0
2016-May-20 05:33N 37°48' W 122°21'0 0.0
2016-May-20 04:34N 37°48' W 122°21'0 0.0
2016-May-20 03:34N 37°48' W 122°21'0 0.4
2016-May-20 02:33N 37°48' W 122°20'2 1.6
2016-May-20 01:33N 37°48' W 122°18'2 2.0
2016-May-20 00:33N 37°48' W 122°21'0 0.0
2016-May-19 23:33N 37°48' W 122°21'2 1.6
2016-May-19 22:33N 37°48' W 122°19'2 1.7
2016-May-19 21:33N 37°49' W 122°19'0 0.0
2016-May-19 20:33N 37°49' W 122°19'0 0.0
2016-May-19 19:33N 37°49' W 122°19'0 0.0
2016-May-19 18:33N 37°49' W 122°19'0 0.0
2016-May-19 17:33N 37°49' W 122°19'0 0.0
2016-May-19 16:32N 37°49' W 122°19'0 0.0
2016-May-19 15:33N 37°49' W 122°19'0 0.0
2016-May-19 14:33N 37°49' W 122°19'0 0.0
2016-May-19 13:33N 37°49' W 122°19'2 1.6
2016-May-19 12:33N 37°48' W 122°20'1 1.5
2016-May-19 11:33N 37°48' W 122°22'3 3.1
2016-May-19 10:33N 37°49' W 122°19'0 0.0
2016-May-19 09:33N 37°49' W 122°19'0 0.0
2016-May-19 08:33N 37°49' W 122°19'0 0.0
2016-May-19 07:33N 37°49' W 122°19'0 0.0
2016-May-19 06:33N 37°49' W 122°19'0 0.0
2016-May-19 05:33N 37°49' W 122°19'0 0.0
2016-May-19 04:33N 37°49' W 122°19'0 0.0
2016-May-19 03:33N 37°49' W 122°19'0 0.0
2016-May-19 02:33N 37°49' W 122°19'2 1.8
2016-May-19 01:33N 37°48' W 122°18'0 0.0
2016-May-19 00:33N 37°48' W 122°18'0 0.0
2016-May-18 23:33N 37°48' W 122°18'1 1.1
2016-May-18 22:33N 37°48' W 122°17'0 0.0
2016-May-18 21:33N 37°48' W 122°17'0 0.0
2016-May-18 20:33N 37°48' W 122°17'0 0.0
2016-May-18 19:33N 37°48' W 122°17'0 0.0
2016-May-18 18:33N 37°48' W 122°17'0 0.0
2016-May-18 17:33N 37°48' W 122°17'2 2.0
2016-May-18 16:33N 37°48' W 122°20'1 0.9
2016-May-18 15:33N 37°48' W 122°21'0 0.0
2016-May-18 14:33N 37°48' W 122°21'0 0.0
2016-May-18 13:33N 37°48' W 122°21'2 2.4
2016-May-18 12:33N 37°48' W 122°18'2 2.5
2016-May-18 11:33N 37°48' W 122°21'1 0.7
2016-May-18 10:33N 37°49' W 122°20'0 0.0
2016-May-18 09:33N 37°49' W 122°20'0 0.0
2016-May-18 08:33N 37°49' W 122°20'0 0.0
2016-May-18 07:33N 37°49' W 122°20'0 0.0
2016-May-18 06:33N 37°49' W 122°20'0 0.0
2016-May-18 05:33N 37°49' W 122°20'1 1.2
2016-May-18 04:33N 37°48' W 122°19'1 1.4
2016-May-18 03:33N 37°48' W 122°21'2 1.7
2016-May-18 02:33N 37°49' W 122°19'0 0.0
2016-May-18 01:33N 37°49' W 122°19'0 0.0
2016-May-18 00:33N 37°49' W 122°19'0 0.0
2016-May-17 23:33N 37°49' W 122°19'0 0.0
2016-May-17 22:33N 37°49' W 122°19'0 0.0
2016-May-17 21:33N 37°49' W 122°19'0 0.0
2016-May-17 20:33N 37°49' W 122°19'0 0.0
2016-May-17 19:33N 37°49' W 122°19'0 0.0
2016-May-17 18:33N 37°49' W 122°19'0 0.0
2016-May-17 17:33N 37°49' W 122°19'0 0.0
2016-May-17 16:33N 37°49' W 122°19'0 0.0
2016-May-17 15:33N 37°49' W 122°19'0 0.0
2016-May-17 14:33N 37°49' W 122°19'2 1.9
2016-May-17 13:33N 37°48' W 122°18'0 0.3
2016-May-17 12:33N 37°48' W 122°18'0 0.0
2016-May-17 11:33N 37°48' W 122°18'0 0.0
2016-May-17 10:33N 37°48' W 122°18'0 0.0
2016-May-17 09:33N 37°48' W 122°18'0 0.0
2016-May-17 08:33N 37°48' W 122°18'0 0.2
2016-May-17 07:33N 37°48' W 122°18'0 0.3
2016-May-17 06:33N 37°48' W 122°18'2 1.7
2016-May-17 05:33N 37°49' W 122°19'0 0.0
2016-May-17 04:33N 37°49' W 122°19'0 0.0
2016-May-17 03:33N 37°49' W 122°19'0 0.1
2016-May-17 02:33N 37°49' W 122°19'1 1.4
2016-May-17 01:33N 37°48' W 122°19'0 0.0
2016-May-17 00:33N 37°48' W 122°19'1 0.7
2016-May-16 23:33N 37°48' W 122°19'0 0.4
2016-May-16 22:33N 37°48' W 122°18'1 1.0
2016-May-16 21:33N 37°48' W 122°19'2 1.5
2016-May-16 20:30N 37°49' W 122°19'1 1.5
2016-May-16 19:33N 37°49' W 122°20'2 1.6
2016-May-16 18:33N 37°48' W 122°19'0 0.3
2016-May-16 17:33N 37°48' W 122°19'1 1.3
2016-May-16 16:33N 37°49' W 122°20'1 0.9
2016-May-16 15:33N 37°49' W 122°19'0 0.0
2016-May-16 14:32N 37°49' W 122°19'0 0.0
2016-May-16 13:30N 37°49' W 122°19'0 0.0
2016-May-16 12:31N 37°49' W 122°19'0 0.0
2016-May-16 11:30N 37°49' W 122°19'0 0.0
2016-May-16 10:33N 37°49' W 122°19'0 0.0
2016-May-16 09:32N 37°49' W 122°19'0 0.0
2016-May-16 08:32N 37°49' W 122°19'2 1.6
2016-May-16 07:33N 37°48' W 122°19'1 1.0
2016-May-16 06:33N 37°48' W 122°21'2 1.8
2016-May-16 05:29N 37°49' W 122°19'2 2.4
2016-May-16 04:29N 37°50' W 122°22'6 5.7
2016-May-16 03:25N 37°55' W 122°25'3 3.9
2016-May-16 02:32N 37°52' W 122°25'6 6.5
2016-May-16 01:33N 37°46' W 122°21'4 3.9
2016-May-16 00:33N 37°49' W 122°19'1 1.0
2016-May-15 23:33N 37°49' W 122°20'0 0.0
2016-May-15 22:33N 37°49' W 122°20'1 1.0
2016-May-15 21:33N 37°49' W 122°19'0 0.0
2016-May-15 20:33N 37°49' W 122°19'0 0.0
2016-May-15 19:31N 37°49' W 122°19'0 0.0
2016-May-15 18:33N 37°49' W 122°19'0 0.0
2016-May-15 17:33N 37°49' W 122°19'1 1.5
2016-May-15 16:33N 37°49' W 122°20'2 1.6
2016-May-15 15:33N 37°48' W 122°19'1 0.6
2016-May-15 14:32N 37°48' W 122°19'1 1.1
2016-May-15 13:33N 37°49' W 122°20'1 1.0
2016-May-15 12:33N 37°48' W 122°22'2 1.7
2016-May-15 11:33N 37°48' W 122°19'2 1.6
2016-May-15 10:33N 37°49' W 122°19'0 0.0
2016-May-15 09:33N 37°49' W 122°19'0 0.0
2016-May-15 08:32N 37°49' W 122°19'0 0.0
2016-May-15 07:33N 37°49' W 122°19'0 0.0
2016-May-15 06:33N 37°49' W 122°19'0 0.0
2016-May-15 05:29N 37°49' W 122°19'0 0.0
2016-May-15 04:27N 37°49' W 122°19'0 0.0
2016-May-15 03:33N 37°49' W 122°19'2 1.8
2016-May-15 02:33N 37°48' W 122°20'1 1.2
2016-May-15 01:32N 37°48' W 122°22'1 0.8
2016-May-15 00:33N 37°47' W 122°23'  

Dump ship's entire track history